sensor_id;sensor_type;location;lat;lon;timestamp;temperature;humidity
33594;DHT22;19920;52.242;20.940;2022-07-15T00:00:11;17.60;99.90
33594;DHT22;19920;52.242;20.940;2022-07-15T00:02:39;17.60;99.90
33594;DHT22;19920;52.242;20.940;2022-07-15T00:05:06;17.50;99.90
33594;DHT22;19920;52.242;20.940;2022-07-15T00:07:32;17.50;99.90
33594;DHT22;19920;52.242;20.940;2022-07-15T00:09:58;17.50;99.90
33594;DHT22;19920;52.242;20.940;2022-07-15T00:12:54;17.50;99.90
33594;DHT22;19920;52.242;20.940;2022-07-15T00:15:23;17.50;99.90
33594;DHT22;19920;52.242;20.940;2022-07-15T00:17:49;17.50;99.90
33594;DHT22;19920;52.242;20.940;2022-07-15T00:20:15;17.40;99.90
33594;DHT22;19920;52.242;20.940;2022-07-15T00:22:41;17.40;99.90
33594;DHT22;19920;52.242;20.940;2022-07-15T00:25:08;17.30;99.90
33594;DHT22;19920;52.242;20.940;2022-07-15T00:27:35;17.20;99.90
33594;DHT22;19920;52.242;20.940;2022-07-15T00:30:02;17.20;99.90
33594;DHT22;19920;52.242;20.940;2022-07-15T00:32:28;17.10;99.90
33594;DHT22;19920;52.242;20.940;2022-07-15T00:34:54;17.10;99.90
33594;DHT22;19920;52.242;20.940;2022-07-15T00:37:19;17.10;99.90
33594;DHT22;19920;52.242;20.940;2022-07-15T00:39:46;17.10;99.90
33594;DHT22;19920;52.242;20.940;2022-07-15T00:42:12;17.00;99.90
33594;DHT22;19920;52.242;20.940;2022-07-15T00:45:04;17.10;99.90
33594;DHT22;19920;52.242;20.940;2022-07-15T00:47:30;17.10;99.90
33594;DHT22;19920;52.242;20.940;2022-07-15T00:49:56;17.10;99.90
33594;DHT22;19920;52.242;20.940;2022-07-15T00:52:23;17.10;99.90
33594;DHT22;19920;52.242;20.940;2022-07-15T00:54:51;17.10;99.90
33594;DHT22;19920;52.242;20.940;2022-07-15T00:57:17;17.10;99.90
33594;DHT22;19920;52.242;20.940;2022-07-15T00:59:44;17.10;99.90
33594;DHT22;19920;52.242;20.940;2022-07-15T01:02:11;17.00;99.90
33594;DHT22;19920;52.242;20.940;2022-07-15T01:04:38;17.00;99.90
33594;DHT22;19920;52.242;20.940;2022-07-15T01:07:05;17.00;99.90
33594;DHT22;19920;52.242;20.940;2022-07-15T01:09:30;17.00;99.90
33594;DHT22;19920;52.242;20.940;2022-07-15T01:11:56;17.00;99.90
33594;DHT22;19920;52.242;20.940;2022-07-15T01:14:22;17.00;99.90
33594;DHT22;19920;52.242;20.940;2022-07-15T01:16:47;16.90;99.90
33594;DHT22;19920;52.242;20.940;2022-07-15T01:19:13;17.00;99.90
33594;DHT22;19920;52.242;20.940;2022-07-15T01:21:38;16.90;99.90
33594;DHT22;19920;52.242;20.940;2022-07-15T01:24:04;16.80;99.90
33594;DHT22;19920;52.242;20.940;2022-07-15T01:26:30;16.70;99.90
33594;DHT22;19920;52.242;20.940;2022-07-15T01:28:56;16.60;99.90
33594;DHT22;19920;52.242;20.940;2022-07-15T01:31:21;16.60;99.90
33594;DHT22;19920;52.242;20.940;2022-07-15T01:33:47;16.50;99.90
33594;DHT22;19920;52.242;20.940;2022-07-15T01:36:12;16.40;99.90
33594;DHT22;19920;52.242;20.940;2022-07-15T01:38:38;16.30;99.90
33594;DHT22;19920;52.242;20.940;2022-07-15T01:41:04;16.10;99.90
33594;DHT22;19920;52.242;20.940;2022-07-15T01:43:30;16.00;99.90
33594;DHT22;19920;52.242;20.940;2022-07-15T01:45:55;15.90;99.90
33594;DHT22;19920;52.242;20.940;2022-07-15T01:48:21;15.80;99.90
33594;DHT22;19920;52.242;20.940;2022-07-15T01:51:06;15.80;99.90
33594;DHT22;19920;52.242;20.940;2022-07-15T01:53:32;15.70;99.90
33594;DHT22;19920;52.242;20.940;2022-07-15T01:55:57;15.60;99.90
33594;DHT22;19920;52.242;20.940;2022-07-15T01:58:23;15.50;99.90
33594;DHT22;19920;52.242;20.940;2022-07-15T02:00:49;15.40;99.90
33594;DHT22;19920;52.242;20.940;2022-07-15T02:03:15;15.40;99.90
33594;DHT22;19920;52.242;20.940;2022-07-15T02:05:41;15.30;99.90
33594;DHT22;19920;52.242;20.940;2022-07-15T02:08:06;15.30;99.90
33594;DHT22;19920;52.242;20.940;2022-07-15T02:10:32;15.20;99.90
33594;DHT22;19920;52.242;20.940;2022-07-15T02:13:08;15.10;99.90
33594;DHT22;19920;52.242;20.940;2022-07-15T02:15:35;15.10;99.90
33594;DHT22;19920;52.242;20.940;2022-07-15T02:18:01;15.00;99.90
33594;DHT22;19920;52.242;20.940;2022-07-15T02:20:27;14.90;99.90
33594;DHT22;19920;52.242;20.940;2022-07-15T02:22:53;14.90;99.90
33594;DHT22;19920;52.242;20.940;2022-07-15T02:25:26;14.80;99.90
33594;DHT22;19920;52.242;20.940;2022-07-15T02:27:54;14.80;99.90
33594;DHT22;19920;52.242;20.940;2022-07-15T02:30:26;14.80;99.90
33594;DHT22;19920;52.242;20.940;2022-07-15T02:32:52;14.80;99.90
33594;DHT22;19920;52.242;20.940;2022-07-15T02:35:18;14.70;99.90
33594;DHT22;19920;52.242;20.940;2022-07-15T02:37:45;14.60;99.90
33594;DHT22;19920;52.242;20.940;2022-07-15T02:40:12;14.60;99.90
33594;DHT22;19920;52.242;20.940;2022-07-15T02:42:38;14.60;99.90
33594;DHT22;19920;52.242;20.940;2022-07-15T02:45:04;14.70;99.90
33594;DHT22;19920;52.242;20.940;2022-07-15T02:47:30;14.70;99.90
33594;DHT22;19920;52.242;20.940;2022-07-15T02:49:55;14.70;99.90
33594;DHT22;19920;52.242;20.940;2022-07-15T02:52:21;14.60;99.90
33594;DHT22;19920;52.242;20.940;2022-07-15T02:54:47;14.60;99.90
33594;DHT22;19920;52.242;20.940;2022-07-15T02:57:12;14.70;99.90
33594;DHT22;19920;52.242;20.940;2022-07-15T02:59:39;14.70;99.90
33594;DHT22;19920;52.242;20.940;2022-07-15T03:02:04;14.70;99.90
33594;DHT22;19920;52.242;20.940;2022-07-15T03:04:30;14.70;99.90
33594;DHT22;19920;52.242;20.940;2022-07-15T03:06:56;14.70;99.90
33594;DHT22;19920;52.242;20.940;2022-07-15T03:09:21;14.60;99.90
33594;DHT22;19920;52.242;20.940;2022-07-15T03:11:47;14.60;99.90
33594;DHT22;19920;52.242;20.940;2022-07-15T03:14:13;14.60;99.90
33594;DHT22;19920;52.242;20.940;2022-07-15T03:16:38;14.60;99.90
33594;DHT22;19920;52.242;20.940;2022-07-15T03:19:04;14.60;99.90
33594;DHT22;19920;52.242;20.940;2022-07-15T03:21:30;14.70;99.90
33594;DHT22;19920;52.242;20.940;2022-07-15T03:23:56;14.70;99.90
33594;DHT22;19920;52.242;20.940;2022-07-15T03:26:21;14.80;99.90
33594;DHT22;19920;52.242;20.940;2022-07-15T03:28:47;14.80;99.90
33594;DHT22;19920;52.242;20.940;2022-07-15T03:31:13;14.80;99.90
33594;DHT22;19920;52.242;20.940;2022-07-15T03:33:38;14.90;99.90
33594;DHT22;19920;52.242;20.940;2022-07-15T03:36:04;14.90;99.90
33594;DHT22;19920;52.242;20.940;2022-07-15T03:38:31;14.90;99.90
33594;DHT22;19920;52.242;20.940;2022-07-15T03:40:57;15.00;99.90
33594;DHT22;19920;52.242;20.940;2022-07-15T03:43:22;15.00;99.90
33594;DHT22;19920;52.242;20.940;2022-07-15T03:45:52;14.90;99.90
33594;DHT22;19920;52.242;20.940;2022-07-15T03:48:19;14.90;99.90
33594;DHT22;19920;52.242;20.940;2022-07-15T03:50:45;14.90;99.90
33594;DHT22;19920;52.242;20.940;2022-07-15T03:53:10;14.90;99.90
33594;DHT22;19920;52.242;20.940;2022-07-15T03:55:36;14.80;99.90
33594;DHT22;19920;52.242;20.940;2022-07-15T03:58:04;14.80;99.90
33594;DHT22;19920;52.242;20.940;2022-07-15T04:00:29;14.70;99.90
33594;DHT22;19920;52.242;20.940;2022-07-15T04:02:55;14.80;99.90
33594;DHT22;19920;52.242;20.940;2022-07-15T04:05:21;14.90;99.90
33594;DHT22;19920;52.242;20.940;2022-07-15T04:07:47;15.00;99.90
33594;DHT22;19920;52.242;20.940;2022-07-15T04:10:13;15.00;99.90
33594;DHT22;19920;52.242;20.940;2022-07-15T04:12:39;15.10;99.90
33594;DHT22;19920;52.242;20.940;2022-07-15T04:15:07;15.10;99.90
33594;DHT22;19920;52.242;20.940;2022-07-15T04:17:33;15.10;99.90
33594;DHT22;19920;52.242;20.940;2022-07-15T04:19:59;15.20;99.90
33594;DHT22;19920;52.242;20.940;2022-07-15T04:22:24;15.30;99.90
33594;DHT22;19920;52.242;20.940;2022-07-15T04:24:50;15.30;99.90
33594;DHT22;19920;52.242;20.940;2022-07-15T04:27:16;15.40;99.90
33594;DHT22;19920;52.242;20.940;2022-07-15T04:29:41;15.50;99.90
33594;DHT22;19920;52.242;20.940;2022-07-15T04:32:07;15.60;99.90
33594;DHT22;19920;52.242;20.940;2022-07-15T04:34:33;15.70;99.90
33594;DHT22;19920;52.242;20.940;2022-07-15T04:36:59;15.80;99.90
33594;DHT22;19920;52.242;20.940;2022-07-15T04:39:24;15.80;99.90
33594;DHT22;19920;52.242;20.940;2022-07-15T04:41:50;15.90;99.90
33594;DHT22;19920;52.242;20.940;2022-07-15T04:44:18;16.00;99.90
33594;DHT22;19920;52.242;20.940;2022-07-15T04:46:43;16.10;99.90
33594;DHT22;19920;52.242;20.940;2022-07-15T04:49:09;16.20;99.90
33594;DHT22;19920;52.242;20.940;2022-07-15T04:51:53;16.30;99.90
33594;DHT22;19920;52.242;20.940;2022-07-15T04:54:19;16.50;99.90
33594;DHT22;19920;52.242;20.940;2022-07-15T04:56:44;16.60;99.90
33594;DHT22;19920;52.242;20.940;2022-07-15T04:59:10;16.60;99.90
33594;DHT22;19920;52.242;20.940;2022-07-15T05:01:36;16.60;99.90
33594;DHT22;19920;52.242;20.940;2022-07-15T05:04:01;16.70;99.90
33594;DHT22;19920;52.242;20.940;2022-07-15T05:06:27;16.80;99.90
33594;DHT22;19920;52.242;20.940;2022-07-15T05:08:53;16.80;99.90
33594;DHT22;19920;52.242;20.940;2022-07-15T05:11:18;16.80;99.90
33594;DHT22;19920;52.242;20.940;2022-07-15T05:13:44;16.90;99.90
33594;DHT22;19920;52.242;20.940;2022-07-15T05:16:10;16.90;99.90
33594;DHT22;19920;52.242;20.940;2022-07-15T05:18:35;16.90;99.90
33594;DHT22;19920;52.242;20.940;2022-07-15T05:21:02;16.90;99.90
33594;DHT22;19920;52.242;20.940;2022-07-15T05:23:28;17.00;99.90
33594;DHT22;19920;52.242;20.940;2022-07-15T05:25:54;17.10;99.90
33594;DHT22;19920;52.242;20.940;2022-07-15T05:28:20;17.10;99.90
33594;DHT22;19920;52.242;20.940;2022-07-15T05:30:46;17.30;99.90
33594;DHT22;19920;52.242;20.940;2022-07-15T05:33:14;17.40;99.90
33594;DHT22;19920;52.242;20.940;2022-07-15T05:35:40;17.60;99.90
33594;DHT22;19920;52.242;20.940;2022-07-15T05:38:06;17.70;99.90
33594;DHT22;19920;52.242;20.940;2022-07-15T05:40:32;17.90;99.90
33594;DHT22;19920;52.242;20.940;2022-07-15T05:42:59;17.90;99.90
33594;DHT22;19920;52.242;20.940;2022-07-15T05:45:25;17.90;99.90
33594;DHT22;19920;52.242;20.940;2022-07-15T05:47:52;18.00;99.90
33594;DHT22;19920;52.242;20.940;2022-07-15T05:50:19;18.20;99.90
33594;DHT22;19920;52.242;20.940;2022-07-15T05:52:45;18.20;99.90
33594;DHT22;19920;52.242;20.940;2022-07-15T05:55:11;18.10;99.90
33594;DHT22;19920;52.242;20.940;2022-07-15T05:57:37;18.10;99.90
33594;DHT22;19920;52.242;20.940;2022-07-15T06:00:03;18.20;99.90
33594;DHT22;19920;52.242;20.940;2022-07-15T06:02:30;18.00;99.90
33594;DHT22;19920;52.242;20.940;2022-07-15T06:04:56;18.00;99.90
33594;DHT22;19920;52.242;20.940;2022-07-15T06:07:22;17.70;99.90
33594;DHT22;19920;52.242;20.940;2022-07-15T06:09:48;17.80;99.90
33594;DHT22;19920;52.242;20.940;2022-07-15T06:12:16;17.80;99.90
33594;DHT22;19920;52.242;20.940;2022-07-15T06:14:42;17.60;99.90
33594;DHT22;19920;52.242;20.940;2022-07-15T06:17:08;17.50;99.90
33594;DHT22;19920;52.242;20.940;2022-07-15T06:19:35;17.20;99.90
33594;DHT22;19920;52.242;20.940;2022-07-15T06:22:00;17.20;99.90
33594;DHT22;19920;52.242;20.940;2022-07-15T06:24:26;17.40;99.90
33594;DHT22;19920;52.242;20.940;2022-07-15T06:26:53;17.50;99.90
33594;DHT22;19920;52.242;20.940;2022-07-15T06:29:19;17.50;99.90
33594;DHT22;19920;52.242;20.940;2022-07-15T06:31:45;17.70;99.90
33594;DHT22;19920;52.242;20.940;2022-07-15T06:34:10;17.80;99.90
33594;DHT22;19920;52.242;20.940;2022-07-15T06:36:36;17.90;99.90
33594;DHT22;19920;52.242;20.940;2022-07-15T06:39:02;18.00;99.90
33594;DHT22;19920;52.242;20.940;2022-07-15T06:41:28;18.00;99.90
33594;DHT22;19920;52.242;20.940;2022-07-15T06:43:54;18.00;99.90
33594;DHT22;19920;52.242;20.940;2022-07-15T06:46:20;18.00;99.90
33594;DHT22;19920;52.242;20.940;2022-07-15T06:48:46;18.00;99.90
33594;DHT22;19920;52.242;20.940;2022-07-15T06:51:11;18.10;99.90
33594;DHT22;19920;52.242;20.940;2022-07-15T06:53:37;18.30;99.90
33594;DHT22;19920;52.242;20.940;2022-07-15T06:56:03;18.30;99.90
33594;DHT22;19920;52.242;20.940;2022-07-15T06:58:29;18.50;99.90
33594;DHT22;19920;52.242;20.940;2022-07-15T07:00:54;18.70;99.90
33594;DHT22;19920;52.242;20.940;2022-07-15T07:03:20;18.70;99.90
33594;DHT22;19920;52.242;20.940;2022-07-15T07:05:46;18.40;99.90
33594;DHT22;19920;52.242;20.940;2022-07-15T07:08:12;18.40;99.90
33594;DHT22;19920;52.242;20.940;2022-07-15T07:10:38;18.50;99.90
33594;DHT22;19920;52.242;20.940;2022-07-15T07:13:03;18.60;99.90
33594;DHT22;19920;52.242;20.940;2022-07-15T07:15:29;18.70;99.90
33594;DHT22;19920;52.242;20.940;2022-07-15T07:17:55;18.80;99.90
33594;DHT22;19920;52.242;20.940;2022-07-15T07:20:20;19.10;99.90
33594;DHT22;19920;52.242;20.940;2022-07-15T07:22:46;19.20;99.90
33594;DHT22;19920;52.242;20.940;2022-07-15T07:25:12;18.90;99.90
33594;DHT22;19920;52.242;20.940;2022-07-15T07:27:38;18.80;99.90
33594;DHT22;19920;52.242;20.940;2022-07-15T07:30:04;18.70;99.90
33594;DHT22;19920;52.242;20.940;2022-07-15T07:32:32;18.90;99.90
33594;DHT22;19920;52.242;20.940;2022-07-15T07:34:58;19.10;99.90
33594;DHT22;19920;52.242;20.940;2022-07-15T07:37:24;19.20;99.90
33594;DHT22;19920;52.242;20.940;2022-07-15T07:39:51;19.40;99.90
33594;DHT22;19920;52.242;20.940;2022-07-15T07:42:16;19.60;99.90
33594;DHT22;19920;52.242;20.940;2022-07-15T07:44:42;19.40;99.90
33594;DHT22;19920;52.242;20.940;2022-07-15T07:47:08;19.00;99.90
33594;DHT22;19920;52.242;20.940;2022-07-15T07:49:34;18.70;99.90
33594;DHT22;19920;52.242;20.940;2022-07-15T07:51:59;18.60;99.90
33594;DHT22;19920;52.242;20.940;2022-07-15T07:54:25;18.50;99.90
33594;DHT22;19920;52.242;20.940;2022-07-15T07:56:51;18.70;99.90
33594;DHT22;19920;52.242;20.940;2022-07-15T07:59:17;18.70;99.90
33594;DHT22;19920;52.242;20.940;2022-07-15T08:01:43;18.70;99.90
33594;DHT22;19920;52.242;20.940;2022-07-15T08:04:08;18.90;99.90
33594;DHT22;19920;52.242;20.940;2022-07-15T08:06:34;19.20;99.90
33594;DHT22;19920;52.242;20.940;2022-07-15T08:09:00;19.40;99.90
33594;DHT22;19920;52.242;20.940;2022-07-15T08:11:26;19.60;99.90
33594;DHT22;19920;52.242;20.940;2022-07-15T08:13:53;19.50;99.90
33594;DHT22;19920;52.242;20.940;2022-07-15T08:16:19;19.50;99.90
33594;DHT22;19920;52.242;20.940;2022-07-15T08:18:46;19.40;99.90
33594;DHT22;19920;52.242;20.940;2022-07-15T08:21:12;19.50;99.90
33594;DHT22;19920;52.242;20.940;2022-07-15T08:23:39;19.70;99.90
33594;DHT22;19920;52.242;20.940;2022-07-15T08:26:05;19.70;99.90
33594;DHT22;19920;52.242;20.940;2022-07-15T08:28:31;19.10;99.90
33594;DHT22;19920;52.242;20.940;2022-07-15T08:30:56;18.80;99.90
33594;DHT22;19920;52.242;20.940;2022-07-15T08:33:22;19.00;99.90
33594;DHT22;19920;52.242;20.940;2022-07-15T08:35:48;19.30;99.90
33594;DHT22;19920;52.242;20.940;2022-07-15T08:38:14;19.30;99.90
33594;DHT22;19920;52.242;20.940;2022-07-15T08:40:40;19.30;99.90
33594;DHT22;19920;52.242;20.940;2022-07-15T08:43:07;19.50;99.90
33594;DHT22;19920;52.242;20.940;2022-07-15T08:45:35;19.80;99.90
33594;DHT22;19920;52.242;20.940;2022-07-15T08:48:04;19.60;99.90
33594;DHT22;19920;52.242;20.940;2022-07-15T08:50:31;19.40;99.90
33594;DHT22;19920;52.242;20.940;2022-07-15T08:52:58;19.10;99.90
33594;DHT22;19920;52.242;20.940;2022-07-15T08:55:23;19.00;99.90
33594;DHT22;19920;52.242;20.940;2022-07-15T08:57:51;19.00;99.90
33594;DHT22;19920;52.242;20.940;2022-07-15T09:00:18;19.20;99.90
33594;DHT22;19920;52.242;20.940;2022-07-15T09:02:44;19.50;99.90
33594;DHT22;19920;52.242;20.940;2022-07-15T09:10:51;20.00;99.90
33594;DHT22;19920;52.242;20.940;2022-07-15T09:13:25;20.00;99.90
33594;DHT22;19920;52.242;20.940;2022-07-15T09:15:51;19.80;99.90
33594;DHT22;19920;52.242;20.940;2022-07-15T09:18:23;19.40;99.90
33594;DHT22;19920;52.242;20.940;2022-07-15T09:20:49;19.00;99.90
33594;DHT22;19920;52.242;20.940;2022-07-15T09:23:18;18.80;99.90
33594;DHT22;19920;52.242;20.940;2022-07-15T09:25:48;18.70;99.90
33594;DHT22;19920;52.242;20.940;2022-07-15T09:28:15;18.80;99.90
33594;DHT22;19920;52.242;20.940;2022-07-15T09:30:44;19.40;99.90
33594;DHT22;19920;52.242;20.940;2022-07-15T09:33:30;19.80;99.90
33594;DHT22;19920;52.242;20.940;2022-07-15T09:36:05;19.70;99.90
33594;DHT22;19920;52.242;20.940;2022-07-15T09:39:02;19.80;99.90
33594;DHT22;19920;52.242;20.940;2022-07-15T09:41:39;19.60;99.90
33594;DHT22;19920;52.242;20.940;2022-07-15T09:44:15;19.60;99.90
33594;DHT22;19920;52.242;20.940;2022-07-15T09:49:11;19.40;99.90
33594;DHT22;19920;52.242;20.940;2022-07-15T09:51:47;19.50;99.90
33594;DHT22;19920;52.242;20.940;2022-07-15T09:54:13;19.30;99.90
33594;DHT22;19920;52.242;20.940;2022-07-15T09:56:39;19.10;99.90
33594;DHT22;19920;52.242;20.940;2022-07-15T09:59:06;19.10;99.90
33594;DHT22;19920;52.242;20.940;2022-07-15T10:01:32;19.40;99.90
33594;DHT22;19920;52.242;20.940;2022-07-15T10:03:58;19.60;99.90
33594;DHT22;19920;52.242;20.940;2022-07-15T10:06:27;19.40;99.90
33594;DHT22;19920;52.242;20.940;2022-07-15T10:08:53;19.50;99.90
33594;DHT22;19920;52.242;20.940;2022-07-15T10:11:19;19.70;99.90
33594;DHT22;19920;52.242;20.940;2022-07-15T10:14:05;20.30;99.90
33594;DHT22;19920;52.242;20.940;2022-07-15T10:17:26;20.50;99.90
33594;DHT22;19920;52.242;20.940;2022-07-15T10:30:25;20.10;99.90
33594;DHT22;19920;52.242;20.940;2022-07-15T10:35:47;20.50;99.90
33594;DHT22;19920;52.242;20.940;2022-07-15T10:43:51;20.30;99.90
33594;DHT22;19920;52.242;20.940;2022-07-15T10:48:44;20.40;99.90
33594;DHT22;19920;52.242;20.940;2022-07-15T10:51:10;20.50;99.90
33594;DHT22;19920;52.242;20.940;2022-07-15T10:53:44;20.60;99.90
33594;DHT22;19920;52.242;20.940;2022-07-15T10:56:29;20.80;99.90
33594;DHT22;19920;52.242;20.940;2022-07-15T11:01:37;21.30;99.90
33594;DHT22;19920;52.242;20.940;2022-07-15T11:14:53;20.80;99.90
33594;DHT22;19920;52.242;20.940;2022-07-15T11:19:53;20.40;99.90
33594;DHT22;19920;52.242;20.940;2022-07-15T11:22:21;20.40;99.90
33594;DHT22;19920;52.242;20.940;2022-07-15T11:24:47;20.80;99.90
33594;DHT22;19920;52.242;20.940;2022-07-15T11:27:13;21.00;99.90
33594;DHT22;19920;52.242;20.940;2022-07-15T11:29:49;21.50;99.90
33594;DHT22;19920;52.242;20.940;2022-07-15T11:32:16;21.70;99.90
33594;DHT22;19920;52.242;20.940;2022-07-15T11:34:49;21.80;99.90
33594;DHT22;19920;52.242;20.940;2022-07-15T11:37:15;21.50;99.90
33594;DHT22;19920;52.242;20.940;2022-07-15T11:39:49;21.80;99.90
33594;DHT22;19920;52.242;20.940;2022-07-15T11:42:22;22.00;99.90
33594;DHT22;19920;52.242;20.940;2022-07-15T11:45:08;21.90;99.90
33594;DHT22;19920;52.242;20.940;2022-07-15T11:47:34;21.90;99.90
33594;DHT22;19920;52.242;20.940;2022-07-15T11:50:04;21.70;99.90
33594;DHT22;19920;52.242;20.940;2022-07-15T11:52:31;21.70;99.90
33594;DHT22;19920;52.242;20.940;2022-07-15T11:54:57;21.40;99.90
33594;DHT22;19920;52.242;20.940;2022-07-15T11:57:23;21.30;99.90
33594;DHT22;19920;52.242;20.940;2022-07-15T11:59:55;21.50;99.90
33594;DHT22;19920;52.242;20.940;2022-07-15T12:02:24;21.20;99.90
33594;DHT22;19920;52.242;20.940;2022-07-15T12:04:51;21.60;99.90
33594;DHT22;19920;52.242;20.940;2022-07-15T12:07:17;21.80;99.90
33594;DHT22;19920;52.242;20.940;2022-07-15T12:09:45;21.60;99.90
33594;DHT22;19920;52.242;20.940;2022-07-15T12:12:12;21.50;99.90
33594;DHT22;19920;52.242;20.940;2022-07-15T12:14:37;21.10;99.90
33594;DHT22;19920;52.242;20.940;2022-07-15T12:17:03;20.70;99.90
33594;DHT22;19920;52.242;20.940;2022-07-15T12:19:31;20.70;99.90
33594;DHT22;19920;52.242;20.940;2022-07-15T12:22:00;20.60;99.90
33594;DHT22;19920;52.242;20.940;2022-07-15T12:24:51;21.10;99.90
33594;DHT22;19920;52.242;20.940;2022-07-15T12:27:18;21.10;99.90
33594;DHT22;19920;52.242;20.940;2022-07-15T12:29:44;21.40;99.90
33594;DHT22;19920;52.242;20.940;2022-07-15T12:32:11;21.70;99.90
33594;DHT22;19920;52.242;20.940;2022-07-15T12:37:17;21.40;99.90
33594;DHT22;19920;52.242;20.940;2022-07-15T12:42:29;20.70;99.90
33594;DHT22;19920;52.242;20.940;2022-07-15T12:45:36;20.70;99.90
33594;DHT22;19920;52.242;20.940;2022-07-15T12:48:11;20.80;99.90
33594;DHT22;19920;52.242;20.940;2022-07-15T12:53:21;21.10;99.90
33594;DHT22;19920;52.242;20.940;2022-07-15T12:55:49;20.80;99.90
33594;DHT22;19920;52.242;20.940;2022-07-15T12:58:18;20.90;99.90
33594;DHT22;19920;52.242;20.940;2022-07-15T13:00:48;21.20;99.90
33594;DHT22;19920;52.242;20.940;2022-07-15T13:03:21;21.30;99.90
33594;DHT22;19920;52.242;20.940;2022-07-15T13:05:50;21.60;99.90
33594;DHT22;19920;52.242;20.940;2022-07-15T13:08:18;21.80;99.90
33594;DHT22;19920;52.242;20.940;2022-07-15T13:10:46;21.50;99.90
33594;DHT22;19920;52.242;20.940;2022-07-15T13:13:15;21.30;99.90
33594;DHT22;19920;52.242;20.940;2022-07-15T13:15:41;21.30;99.90
33594;DHT22;19920;52.242;20.940;2022-07-15T13:18:07;21.20;99.90
33594;DHT22;19920;52.242;20.940;2022-07-15T13:20:34;21.30;99.90
33594;DHT22;19920;52.242;20.940;2022-07-15T13:23:00;21.40;99.90
33594;DHT22;19920;52.242;20.940;2022-07-15T13:25:26;21.60;99.90
33594;DHT22;19920;52.242;20.940;2022-07-15T13:27:53;21.70;99.90
33594;DHT22;19920;52.242;20.940;2022-07-15T13:30:19;21.50;99.90
33594;DHT22;19920;52.242;20.940;2022-07-15T13:32:45;21.80;99.90
33594;DHT22;19920;52.242;20.940;2022-07-15T13:35:11;21.90;99.90
33594;DHT22;19920;52.242;20.940;2022-07-15T13:37:38;21.90;99.90
33594;DHT22;19920;52.242;20.940;2022-07-15T13:40:06;21.90;99.90
33594;DHT22;19920;52.242;20.940;2022-07-15T13:42:32;22.20;99.90
33594;DHT22;19920;52.242;20.940;2022-07-15T13:44:59;22.40;99.90
33594;DHT22;19920;52.242;20.940;2022-07-15T13:47:25;22.90;99.90
33594;DHT22;19920;52.242;20.940;2022-07-15T13:49:51;23.40;99.90
33594;DHT22;19920;52.242;20.940;2022-07-15T13:52:44;23.50;99.90
33594;DHT22;19920;52.242;20.940;2022-07-15T13:55:11;22.80;99.90
33594;DHT22;19920;52.242;20.940;2022-07-15T13:57:37;22.50;99.90
33594;DHT22;19920;52.242;20.940;2022-07-15T14:00:09;22.70;99.90
33594;DHT22;19920;52.242;20.940;2022-07-15T14:02:37;22.40;99.90
33594;DHT22;19920;52.242;20.940;2022-07-15T14:05:03;21.80;99.90
33594;DHT22;19920;52.242;20.940;2022-07-15T14:07:29;21.30;99.90
33594;DHT22;19920;52.242;20.940;2022-07-15T14:09:55;21.50;99.90
33594;DHT22;19920;52.242;20.940;2022-07-15T14:12:21;22.20;99.90
33594;DHT22;19920;52.242;20.940;2022-07-15T14:14:46;23.10;99.90
33594;DHT22;19920;52.242;20.940;2022-07-15T14:17:12;23.40;99.90
33594;DHT22;19920;52.242;20.940;2022-07-15T14:19:38;24.30;99.90
33594;DHT22;19920;52.242;20.940;2022-07-15T14:22:03;24.40;99.90
33594;DHT22;19920;52.242;20.940;2022-07-15T14:24:29;24.30;99.90
33594;DHT22;19920;52.242;20.940;2022-07-15T14:26:54;24.20;99.90
33594;DHT22;19920;52.242;20.940;2022-07-15T14:29:20;24.80;99.90
33594;DHT22;19920;52.242;20.940;2022-07-15T14:31:46;25.30;99.90
33594;DHT22;19920;52.242;20.940;2022-07-15T14:34:12;25.50;99.90
33594;DHT22;19920;52.242;20.940;2022-07-15T14:36:37;25.70;99.90
33594;DHT22;19920;52.242;20.940;2022-07-15T14:39:04;25.80;99.90
33594;DHT22;19920;52.242;20.940;2022-07-15T14:41:30;25.90;99.90
33594;DHT22;19920;52.242;20.940;2022-07-15T14:43:55;25.60;99.20
33594;DHT22;19920;52.242;20.940;2022-07-15T14:46:21;25.70;98.80
33594;DHT22;19920;52.242;20.940;2022-07-15T14:48:47;25.90;98.30
33594;DHT22;19920;52.242;20.940;2022-07-15T14:51:13;25.80;98.20
33594;DHT22;19920;52.242;20.940;2022-07-15T14:53:39;26.10;98.30
33594;DHT22;19920;52.242;20.940;2022-07-15T14:56:05;26.90;98.20
33594;DHT22;19920;52.242;20.940;2022-07-15T14:58:31;28.00;96.70
33594;DHT22;19920;52.242;20.940;2022-07-15T15:00:56;26.80;95.70
33594;DHT22;19920;52.242;20.940;2022-07-15T15:03:22;26.60;96.70
33594;DHT22;19920;52.242;20.940;2022-07-15T15:05:48;26.50;96.00
33594;DHT22;19920;52.242;20.940;2022-07-15T15:08:14;26.20;96.20
33594;DHT22;19920;52.242;20.940;2022-07-15T15:10:40;26.50;96.50
33594;DHT22;19920;52.242;20.940;2022-07-15T15:13:06;25.60;96.80
33594;DHT22;19920;52.242;20.940;2022-07-15T15:15:31;26.10;96.20
33594;DHT22;19920;52.242;20.940;2022-07-15T15:17:57;26.40;95.80
33594;DHT22;19920;52.242;20.940;2022-07-15T15:20:23;25.70;96.60
33594;DHT22;19920;52.242;20.940;2022-07-15T15:22:48;26.10;96.30
33594;DHT22;19920;52.242;20.940;2022-07-15T15:25:14;27.40;95.80
33594;DHT22;19920;52.242;20.940;2022-07-15T15:27:40;27.10;94.40
33594;DHT22;19920;52.242;20.940;2022-07-15T15:30:07;26.30;94.70
33594;DHT22;19920;52.242;20.940;2022-07-15T15:32:33;25.70;95.40
33594;DHT22;19920;52.242;20.940;2022-07-15T15:34:59;25.90;95.70
33594;DHT22;19920;52.242;20.940;2022-07-15T15:37:25;26.20;95.10
33594;DHT22;19920;52.242;20.940;2022-07-15T15:39:51;27.00;95.10
33594;DHT22;19920;52.242;20.940;2022-07-15T15:42:16;27.30;94.20
33594;DHT22;19920;52.242;20.940;2022-07-15T15:44:42;26.30;94.40
33594;DHT22;19920;52.242;20.940;2022-07-15T15:47:07;26.00;94.60
33594;DHT22;19920;52.242;20.940;2022-07-15T15:49:34;25.30;94.50
33594;DHT22;19920;52.242;20.940;2022-07-15T15:52:04;25.30;95.00
33594;DHT22;19920;52.242;20.940;2022-07-15T15:54:30;26.10;94.20
33594;DHT22;19920;52.242;20.940;2022-07-15T15:56:56;26.50;93.80
33594;DHT22;19920;52.242;20.940;2022-07-15T15:59:22;26.10;94.10
33594;DHT22;19920;52.242;20.940;2022-07-15T16:01:48;24.30;95.40
33594;DHT22;19920;52.242;20.940;2022-07-15T16:04:14;23.10;96.60
33594;DHT22;19920;52.242;20.940;2022-07-15T16:06:39;22.50;97.50
33594;DHT22;19920;52.242;20.940;2022-07-15T16:09:05;22.70;97.50